Date,TemperatureHighF,TemperatureAvgF,TemperatureLowF,DewpointHighF,DewpointAvgF,DewpointLowF,HumidityHigh,HumidityAvg,HumidityLow,PressureMaxIn,PressureMinIn,WindSpeedMaxMPH,WindSpeedAvgMPH,GustSpeedMaxMPH,PrecipitationSumIn
2013-1-1,75.1,67.6,61.2,67.0,62.2,58.0,96,83,69,30.05,29.92,14,6,26,1.12
2013-1-2,73.8,67.5,64.4,66.1,63.1,61.0,95,86,74,29.99,29.88,13,7,23,1.01
2013-1-3,75.2,66.7,61.6,67.8,62.9,59.3,95,88,71,30.00,29.90,15,7,28,0.86
2013-1-4,68.3,64.9,62.8,65.3,62.7,60.8,95,93,88,30.04,29.92,20,13,36,1.81
2013-1-5,71.5,66.1,63.1,65.1,61.0,54.7,93,84,69,30.06,29.97,21,11,35,0.55
2013-1-6,77.5,69.2,65.0,63.8,59.3,53.4,87,71,58,30.05,29.91,18,8,37,0.01
2013-1-7,78.3,69.0,64.2,63.6,56.2,37.7,90,67,24,30.00,29.87,18,9,28,0.03
2013-1-8,76.1,66.7,58.3,63.5,59.1,53.2,91,77,57,29.93,29.80,18,6,27,0.09
2013-1-9,75.3,67.3,64.9,66.4,62.3,59.9,90,84,71,29.93,29.81,15,9,26,0.06
2013-1-10,76.7,66.7,58.6,62.4,58.2,55.0,89,75,56,29.92,29.82,15,5,22,0.05
2013-1-11,75.4,66.6,59.6,66.5,61.2,57.6,94,83,66,29.90,29.80,13,6,24,0.00
2013-1-12,76.8,66.6,59.2,66.4,61.6,56.9,94,85,65,29.92,29.82,7,1,12,0.04
2013-1-13,80.8,67.6,57.5,68.4,60.3,53.8,91,78,59,29.93,29.84,6,1,12,0.00
2013-1-14,79.2,68.2,59.1,67.1,62.4,56.6,97,83,61,29.93,29.78,20,5,28,0.61
2013-1-15,71.1,65.9,61.3,65.9,63.4,58.4,97,92,81,29.89,29.80,6,1,10,0.15
2013-1-16,74.5,64.8,58.3,63.8,58.3,55.1,96,81,54,29.90,29.78,8,1,12,0.00
2013-1-17,74.3,62.5,54.3,63.2,57.9,51.7,95,86,64,29.87,29.77,6,1,13,0.00
2013-1-18,74.1,64.4,56.9,61.2,58.9,55.3,97,83,62,29.90,29.77,7,2,12,0.08
2013-1-19,71.5,61.4,54.3,59.5,54.9,52.0,94,80,57,30.00,29.86,6,1,10,0.00
2013-1-20,72.1,62.9,57.2,58.9,55.9,52.1,87,78,60,30.01,29.92,12,6,21,0.00
2013-1-21,73.2,65.1,59.7,61.5,57.3,54.2,87,76,62,30.05,29.97,14,9,29,0.00
2013-1-22,77.3,67.1,61.9,63.8,58.4,53.0,86,74,53,30.07,29.95,14,8,28,0.00
2013-1-23,73.2,64.9,55.6,64.2,59.2,53.0,94,82,64,30.00,29.91,9,3,20,0.00
2013-1-24,74.4,66.2,58.2,63.6,59.6,54.1,88,80,67,30.01,29.94,13,3,21,0.00
2013-1-25,79.8,65.6,55.5,65.6,58.9,51.9,91,80,60,30.01,29.92,10,1,16,0.00
2013-1-26,78.4,66.4,56.1,64.9,58.1,52.1,90,76,55,29.98,29.87,9,2,15,0.00
2013-1-27,77.7,66.7,55.8,63.9,58.6,51.7,89,76,54,29.94,29.82,14,4,23,0.00
2013-1-28,72.4,66.6,61.8,66.2,62.4,58.6,93,86,74,29.92,29.82,6,1,10,0.05
2013-1-29,71.7,65.8,61.2,66.6,62.5,58.2,95,89,80,29.99,29.87,5,1,10,0.33
2013-1-30,72.3,66.3,62.0,67.1,63.3,59.4,95,90,81,30.01,29.94,7,2,10,0.00
2013-1-31,73.5,66.0,62.5,67.1,63.3,59.8,97,91,78,30.05,29.95,10,5,18,1.11
2013-2-1,74.6,66.3,60.7,63.0,59.4,54.1,95,79,62,30.05,29.97,17,9,28,0.10
2013-2-2,74.2,66.3,55.0,60.9,56.7,50.3,84,72,59,30.07,29.97,14,7,27,0.00
2013-2-3,74.4,62.8,50.3,61.5,55.1,45.3,89,77,60,30.12,29.99,17,8,32,0.00
2013-2-4,74.6,65.1,61.2,64.0,59.0,53.8,94,81,62,30.05,29.97,20,10,32,0.02
2013-2-5,72.8,64.8,59.5,63.6,59.0,53.1,94,82,66,30.03,29.93,14,8,28,0.10
2013-2-6,73.2,65.5,60.4,67.1,62.1,58.1,96,89,78,30.02,29.94,12,6,23,0.10
2013-2-7,76.1,66.7,59.4,66.9,61.0,57.3,94,82,68,30.06,29.94,15,7,22,0.06
2013-2-8,78.0,66.9,56.1,65.3,59.1,51.7,89,77,62,30.08,29.94,10,3,18,0.00
2013-2-9,72.1,64.1,56.2,65.2,59.2,51.2,94,85,73,30.09,29.97,13,5,22,0.26
2013-2-10,75.3,66.6,61.7,64.9,60.2,56.6,93,80,66,30.13,29.99,16,9,27,0.09
2013-2-11,73.5,65.6,61.4,66.2,60.5,55.5,93,84,71,30.14,30.03,16,9,25,0.10
2013-2-12,71.7,63.8,59.3,64.0,58.0,53.8,90,82,68,30.13,30.01,14,8,27,0.01
2013-2-13,70.7,63.8,59.6,60.8,55.4,51.5,86,74,63,30.07,29.93,15,7,27,0.00
2013-2-14,74.4,64.7,58.6,60.5,56.3,50.3,87,75,60,30.04,29.91,13,7,25,0.00
2013-2-15,74.9,66.3,60.0,64.5,57.9,51.6,87,75,59,30.05,29.93,15,8,26,0.03
2013-2-16,69.7,64.0,61.2,63.9,60.1,57.1,93,87,72,30.08,29.98,14,8,26,0.67
2013-2-17,67.7,62.9,60.9,62.9,60.0,58.0,94,90,81,30.10,30.00,16,9,35,1.34
2013-2-18,67.5,62.4,60.3,62.6,59.4,54.3,95,90,77,30.10,29.98,17,9,35,2.44
2013-2-19,72.5,64.3,59.5,63.8,58.0,50.5,93,81,58,30.09,29.98,17,10,30,0.42
2013-2-20,72.2,64.6,61.3,63.9,59.7,55.6,93,85,67,30.08,30.00,18,9,32,0.52
2013-2-21,67.6,63.4,61.1,65.0,60.4,56.4,96,90,81,30.08,30.01,15,8,27,6.46
2013-2-22,71.9,64.9,62.3,64.1,60.9,57.1,94,87,76,30.07,29.96,17,9,29,1.11
2013-2-23,74.7,66.4,61.9,63.7,59.5,54.4,94,79,62,30.06,29.96,15,9,33,0.79
2013-2-24,71.6,64.4,61.1,65.1,60.6,58.5,93,88,69,30.06,29.95,14,8,26,0.29
2013-2-25,72.5,65.1,60.9,65.9,60.4,56.0,92,85,71,30.09,29.98,13,8,24,0.20
2013-2-26,72.8,65.1,61.3,63.9,59.0,53.6,92,81,65,30.11,30.00,14,9,25,0.33
2013-2-27,73.9,65.5,60.9,61.8,57.8,54.4,92,77,61,30.12,30.01,18,10,29,0.13
2013-2-28,74.0,65.5,61.3,61.1,56.4,51.2,88,73,50,30.14,30.01,16,9,27,0.01
2013-3-1,71.2,64.4,60.7,62.2,57.6,52.3,90,79,65,30.12,30.02,16,9,27,0.09
2013-3-2,73.9,65.6,60.6,59.7,56.4,50.4,91,73,50,30.12,29.96,17,10,32,0.05
2013-3-3,73.1,65.2,60.2,59.3,56.4,51.6,90,74,57,30.12,30.01,17,10,28,0.01
2013-3-4,74.7,65.6,60.9,60.3,56.7,52.2,85,74,56,30.12,30.00,17,9,29,0.00
2013-3-5,76.7,66.3,60.4,62.7,57.3,52.2,87,74,56,30.09,29.96,14,8,24,0.00
2013-3-6,75.8,66.1,59.0,62.9,58.8,52.8,89,78,61,30.07,29.97,12,5,20,0.01
2013-3-7,75.6,65.1,57.1,65.4,59.3,53.2,88,82,65,30.03,29.91,7,2,13,0.02
2013-3-8,76.1,65.0,53.3,63.0,57.0,49.6,92,76,54,29.98,29.83,9,3,16,0.01
2013-3-9,79.7,67.1,56.6,63.7,58.5,52.6,95,76,45,29.91,29.79,18,7,27,0.70
2013-3-10,76.2,67.0,61.5,65.9,61.6,57.5,96,84,63,29.96,29.82,20,8,31,0.83
2013-3-11,71.1,64.6,59.9,65.6,62.1,57.9,96,92,80,30.01,29.90,7,1,13,0.02
2013-3-12,74.1,65.2,60.5,65.7,61.7,58.7,96,89,74,30.04,29.91,7,1,12,0.01
2013-3-13,74.8,65.2,58.0,63.9,59.5,55.2,95,83,66,30.03,29.93,12,4,18,0.01
2013-3-14,76.5,65.9,57.8,66.1,60.1,55.1,91,82,60,30.02,29.90,13,1,17,0.00
2013-3-15,74.7,67.4,63.2,64.5,60.9,54.0,95,80,54,29.93,29.81,16,7,25,0.02
2013-3-16,67.7,62.6,59.5,60.9,58.4,55.5,97,86,71,29.97,29.84,9,3,14,0.09
2013-3-17,72.0,62.9,56.9,59.7,55.8,53.0,93,79,52,29.99,29.88,8,2,12,0.00
2013-3-18,75.0,63.0,52.9,62.2,55.7,49.7,92,78,60,29.98,29.87,8,3,14,0.00
2013-3-19,77.8,65.0,53.0,65.4,55.8,48.4,88,74,46,29.98,29.88,15,3,30,0.00
2013-3-20,78.4,66.1,55.7,65.9,58.5,52.0,90,78,54,30.02,29.91,12,2,16,0.00
2013-3-21,82.1,70.5,61.1,66.5,61.5,56.7,90,74,53,30.01,29.89,10,3,16,0.00
2013-3-22,75.8,67.9,62.7,66.4,62.6,56.5,93,83,70,29.98,29.86,12,2,16,0.00
2013-3-23,72.3,65.9,62.6,67.2,62.8,57.0,97,90,81,29.98,29.87,7,3,15,0.90
2013-3-24,74.1,66.1,60.4,66.3,62.5,58.3,97,89,75,29.97,29.87,7,2,18,0.04
2013-3-25,77.7,67.5,57.7,67.6,61.9,55.1,92,83,67,29.97,29.86,8,2,15,0.00
2013-3-26,80.5,68.0,57.2,69.0,61.6,55.6,95,81,64,29.99,29.88,9,1,14,0.00
2013-3-27,79.5,66.7,57.9,67.2,59.6,51.9,94,79,57,29.95,29.86,13,4,29,0.00
2013-3-28,75.4,67.1,58.9,66.2,60.0,53.3,89,78,66,29.98,29.87,16,7,24,0.00
2013-3-29,68.9,64.6,61.3,66.2,61.3,56.1,95,89,78,29.99,29.91,12,6,23,0.87
2013-3-30,74.6,64.8,58.5,66.5,61.3,55.8,97,89,72,30.01,29.91,6,1,12,0.04
2013-3-31,71.2,63.2,58.1,59.7,56.2,53.7,96,79,57,30.00,29.91,8,2,17,0.13
2013-4-1,73.1,62.4,53.7,58.9,55.4,50.7,92,79,58,29.97,29.87,9,2,17,0.00
2013-4-2,71.8,62.6,55.7,58.3,55.0,47.1,95,77,60,30.03,29.92,7,2,15,0.00
2013-4-3,74.6,65.0,58.3,62.6,57.8,53.5,88,78,64,30.03,29.92,14,5,22,0.00
2013-4-4,77.8,67.1,55.9,64.9,58.5,51.6,87,75,57,30.04,29.93,12,2,18,0.00
2013-4-5,77.7,69.3,60.3,66.4,61.7,55.8,93,77,62,30.05,29.95,13,5,23,0.00
2013-4-6,82.4,70.7,60.1,68.1,62.8,56.8,91,77,62,30.08,29.98,9,3,19,0.00
2013-4-7,80.7,69.9,60.0,68.9,62.8,57.4,93,79,64,30.11,30.02,12,3,22,0.00
2013-4-8,78.4,68.4,59.6,65.6,61.0,57.4,94,78,63,30.04,29.90,12,4,22,0.01
2013-4-9,77.3,68.9,63.1,66.1,61.4,57.9,87,77,63,30.01,29.90,13,4,23,0.02
2013-4-10,78.8,68.0,58.5,66.2,60.3,54.4,91,77,58,30.00,29.90,14,5,24,0.00
2013-4-11,80.0,68.8,60.3,69.4,62.3,57.7,93,80,63,29.98,29.86,14,4,22,0.00
2013-4-12,80.6,69.9,60.9,67.3,62.2,57.0,88,77,60,29.91,29.83,7,1,14,0.00
2013-4-13,83.7,72.1,61.2,67.5,63.5,57.3,91,76,51,29.90,29.79,13,4,20,0.00
2013-4-14,78.1,69.3,62.7,67.6,63.6,57.7,91,82,67,29.92,29.81,13,4,22,0.00
2013-4-15,79.4,70.3,61.5,68.2,63.8,58.2,91,80,64,29.99,29.87,7,1,22,0.00
2013-4-16,82.8,70.4,59.6,69.0,63.0,55.4,92,78,63,30.04,29.94,8,2,16,0.00
2013-4-17,82.1,69.9,58.4,67.8,61.0,54.5,91,74,60,30.08,29.97,15,5,30,0.00
2013-4-18,80.0,73.1,65.2,67.0,62.8,55.5,83,70,63,30.07,30.00,14,10,30,0.00
2013-4-19,74.8,67.2,60.4,66.8,60.9,53.9,88,81,64,30.04,29.95,14,4,25,0.09
2013-4-20,83.0,69.4,59.1,68.2,62.3,56.8,93,79,56,30.02,29.93,9,2,16,0.00
2013-4-21,79.2,68.3,59.4,68.0,62.2,55.9,92,81,63,29.99,29.91,12,2,20,0.00
2013-4-22,79.6,69.5,60.2,68.8,63.2,57.6,93,81,63,29.99,29.90,12,3,17,0.00
2013-4-23,84.0,70.5,60.0,68.6,63.0,57.3,94,78,53,30.01,29.91,12,4,20,0.00
2013-4-24,84.1,71.6,63.5,71.9,64.3,60.0,93,79,55,30.04,29.91,13,3,22,0.02
2013-4-25,81.7,73.0,60.9,66.1,62.1,56.8,93,70,57,30.00,29.94,13,6,26,0.00
2013-4-26,81.1,70.8,65.0,64.4,59.4,52.4,80,68,55,29.97,29.88,15,8,28,0.00
2013-4-27,81.6,71.2,61.8,66.9,60.3,55.1,84,69,53,30.00,29.87,9,3,17,0.00
2013-4-28,81.8,70.2,59.6,66.3,61.7,54.9,89,76,52,29.97,29.87,10,3,20,0.00
2013-4-29,81.3,70.1,59.6,67.1,62.1,56.6,91,77,53,29.94,29.85,13,4,22,0.00
2013-4-30,81.4,69.7,60.1,69.9,63.1,57.3,92,80,57,29.97,29.88,8,2,14,0.03
2013-5-1,80.8,70.4,61.0,67.0,61.8,56.5,91,75,60,30.01,29.91,13,5,26,0.00
2013-5-2,81.4,72.5,62.1,66.8,62.9,58.3,90,73,52,30.02,29.95,13,4,22,0.00
2013-5-3,81.7,70.7,59.6,65.9,61.4,56.1,90,74,56,30.01,29.90,10,3,21,0.00
2013-5-4,81.3,69.5,59.9,65.5,60.6,54.5,87,74,56,29.95,29.84,9,2,20,0.00
2013-5-5,80.0,68.5,60.0,66.8,62.4,56.7,96,82,58,29.90,29.79,15,6,25,0.03
2013-5-6,72.9,67.8,64.2,69.1,65.3,62.4,95,92,83,29.92,29.80,10,4,20,0.20
2013-5-7,79.3,68.9,61.4,68.7,64.3,59.6,97,86,69,29.93,29.85,7,1,12,0.00
2013-5-8,79.2,69.7,61.2,69.9,65.2,58.7,97,86,70,29.97,29.87,10,1,14,0.00
2013-5-9,82.5,70.9,62.4,71.0,65.8,60.7,96,84,67,30.02,29.90,8,2,15,0.00
2013-5-10,81.5,71.4,62.9,70.5,66.2,59.4,96,84,68,30.05,29.95,9,4,18,0.29
2013-5-11,77.8,69.2,64.9,70.3,66.4,63.4,97,91,74,30.04,29.95,14,6,23,1.96
2013-5-12,72.4,68.2,66.1,69.9,66.0,63.4,95,93,87,30.04,29.95,13,7,26,1.09
2013-5-13,80.9,71.5,66.3,71.8,66.1,62.0,94,83,65,30.01,29.92,14,6,25,0.13
2013-5-14,82.8,73.2,65.3,69.4,64.3,59.2,90,75,58,30.03,29.95,14,6,26,0.00
2013-5-15,82.3,71.8,66.2,67.4,63.8,60.6,91,77,58,30.07,29.97,16,8,27,0.00
2013-5-16,78.7,70.6,66.1,67.2,62.9,58.8,87,77,65,30.05,29.95,13,9,27,0.03
2013-5-17,80.4,70.5,65.4,65.7,62.1,59.5,91,75,58,30.02,29.91,15,8,26,0.04
2013-5-18,80.4,69.0,60.1,67.9,62.3,56.9,90,80,59,29.97,29.89,9,2,20,0.05
2013-5-19,79.4,68.7,60.7,68.5,63.0,58.1,93,82,67,29.94,29.85,7,2,14,0.00
2013-5-20,77.2,68.0,61.7,67.4,63.7,59.6,95,86,67,29.94,29.84,6,1,13,0.01
2013-5-21,77.8,68.3,59.9,67.5,62.9,57.6,93,83,65,29.96,29.87,7,1,16,0.03
2013-5-22,81.4,71.6,61.0,70.4,64.3,57.4,91,79,62,29.99,29.89,7,2,12,0.00
2013-5-23,82.7,72.6,62.0,70.1,64.8,58.7,93,77,61,29.99,29.89,14,5,25,0.00
2013-5-24,83.0,72.2,63.8,69.4,64.5,61.3,93,78,60,30.00,29.91,16,6,31,0.00
2013-5-25,77.7,69.2,65.4,70.3,65.2,61.6,94,87,73,30.03,29.92,13,8,26,0.40
2013-5-26,80.2,71.6,65.0,68.5,62.7,57.4,91,74,55,30.04,29.92,15,8,27,0.00
2013-5-27,77.6,70.5,66.5,66.2,62.0,58.8,84,75,61,30.04,29.95,13,6,24,0.00
2013-5-28,79.4,69.6,61.3,71.0,64.0,57.7,92,83,65,30.04,29.96,9,3,18,0.01
2013-5-29,79.8,69.6,62.1,70.5,64.6,59.7,93,85,68,30.02,29.93,8,2,15,0.01
2013-5-30,80.8,70.6,60.9,70.0,64.6,59.1,96,82,65,29.98,29.87,12,4,21,0.00
2013-5-31,78.5,70.7,63.3,69.3,64.8,60.6,94,82,71,29.98,29.88,14,5,23,0.00
2013-6-1,83.9,74.1,65.9,71.2,65.2,59.1,87,74,56,30.01,29.90,16,7,26,0.00
2013-6-2,78.7,72.1,68.1,71.3,66.4,60.2,91,82,70,30.01,29.94,16,10,31,0.00
2013-6-3,80.7,72.2,67.8,68.1,63.0,58.7,88,73,61,30.02,29.92,16,10,30,0.00
2013-6-4,82.2,72.5,67.1,68.1,63.4,57.9,87,74,56,29.99,29.88,15,8,30,0.00
2013-6-5,77.9,69.8,65.2,69.3,64.0,58.4,90,82,68,29.99,29.90,16,9,30,0.01
2013-6-6,78.0,70.0,64.8,67.9,63.2,56.9,92,80,66,29.99,29.88,16,8,30,0.01
2013-6-7,76.8,68.9,63.2,67.0,62.6,60.1,93,81,66,29.99,29.88,16,9,28,0.00
2013-6-8,79.4,70.7,65.3,67.4,62.7,59.8,90,76,63,30.00,29.91,14,8,29,0.00
2013-6-9,79.3,71.6,67.1,68.7,63.4,60.3,86,76,64,30.02,29.93,15,8,25,0.00
2013-6-10,79.6,71.1,66.0,67.9,63.6,60.3,88,78,64,30.00,29.92,14,8,26,0.00
2013-6-11,83.3,72.9,63.4,67.4,63.6,60.4,90,73,56,29.96,29.89,16,5,25,0.00
2013-6-12,81.1,72.2,65.5,70.7,63.1,57.5,88,74,56,30.01,29.92,15,7,26,0.21
2013-6-13,81.5,72.1,66.6,68.6,64.4,59.8,91,78,57,30.02,29.96,16,9,30,0.10
2013-6-14,79.3,71.2,66.7,67.1,62.7,57.9,90,75,62,30.01,29.91,18,10,30,0.07
2013-6-15,80.0,71.7,66.8,68.9,62.2,55.5,85,72,61,29.95,29.85,14,8,28,0.00
2013-6-16,82.2,72.7,65.8,66.9,61.5,54.6,85,69,50,29.96,29.86,14,8,25,0.00
2013-6-17,80.1,71.8,66.7,69.7,63.3,59.3,87,75,64,30.02,29.90,14,9,30,0.01
2013-6-18,84.1,73.2,64.8,68.5,63.3,59.9,88,72,53,29.99,29.91,16,8,31,0.00
2013-6-19,81.6,73.3,67.2,66.5,61.9,57.5,79,68,55,29.99,29.92,13,7,26,0.00
2013-6-20,81.8,71.9,63.5,68.0,63.4,59.2,89,75,60,30.00,29.90,12,5,21,0.03
2013-6-21,82.3,71.9,66.6,69.5,64.4,60.6,89,78,62,29.99,29.90,14,8,28,0.01
2013-6-22,80.9,71.3,65.7,68.3,63.5,60.4,90,77,60,30.03,29.92,20,10,31,0.02
2013-6-23,82.5,73.0,66.7,69.1,64.3,59.5,90,75,63,30.04,29.96,14,9,26,0.01
2013-6-24,81.7,70.9,65.6,66.5,62.7,55.8,93,76,55,30.03,29.95,14,8,25,0.05
2013-6-25,78.8,69.6,61.0,71.4,64.9,58.7,94,85,72,30.01,29.93,12,4,20,0.03
2013-6-26,79.9,71.5,64.3,69.3,64.5,60.8,91,79,66,30.00,29.91,16,7,30,0.01
2013-6-27,81.8,71.6,64.3,66.0,61.2,56.6,87,70,55,29.96,29.87,14,7,26,0.00
2013-6-28,82.8,71.9,63.1,68.8,63.3,58.7,89,75,56,29.94,29.86,14,6,25,0.00
2013-6-29,76.7,69.6,65.1,69.7,62.9,53.0,91,79,63,29.96,29.87,12,6,20,0.26
2013-6-30,81.4,72.8,62.9,68.3,63.5,59.7,91,73,59,29.97,29.88,14,7,26,0.00
2013-7-1,81.9,72.3,66.4,71.1,63.7,56.3,90,75,59,29.95,29.88,16,8,31,0.00
2013-7-2,80.5,70.2,64.5,69.9,64.2,58.3,92,82,63,29.93,29.85,14,6,25,0.08
2013-7-3,82.5,72.1,65.9,67.7,63.7,60.8,89,76,56,29.94,29.86,12,6,21,0.00
2013-7-4,80.7,71.3,63.3,69.3,63.8,59.0,91,78,62,29.97,29.89,12,4,22,0.00
2013-7-5,80.3,69.9,60.8,70.0,64.6,57.5,92,84,70,29.97,29.89,9,3,20,0.00
2013-7-6,83.9,70.9,60.5,67.5,62.9,57.6,93,77,53,29.97,29.90,8,2,16,0.00
2013-7-7,83.9,72.0,60.5,69.8,63.1,56.1,87,74,61,29.93,29.82,14,4,24,0.00
2013-7-8,84.3,72.9,64.9,69.0,63.2,57.4,85,72,55,29.97,29.84,13,4,22,0.00
2013-7-9,83.6,74.1,68.9,68.8,64.6,60.3,83,73,53,30.06,29.91,17,10,35,0.00
2013-7-10,81.5,72.0,66.8,68.1,64.1,61.7,90,77,58,30.07,29.99,17,10,30,0.12
2013-7-11,81.9,71.9,65.7,66.6,63.2,58.4,93,75,54,30.04,29.93,18,10,30,0.08
2013-7-12,82.3,72.6,66.6,68.7,62.4,56.0,84,71,59,29.99,29.89,16,8,26,0.00
2013-7-13,82.8,72.9,66.6,66.5,61.5,55.3,83,68,52,29.95,29.84,15,8,26,0.00
2013-7-14,83.9,73.5,66.7,65.4,59.0,46.4,76,61,47,29.93,29.82,14,7,23,0.00
2013-7-15,81.1,72.0,66.1,65.9,62.6,59.6,87,73,58,29.95,29.85,12,6,21,0.00
2013-7-16,83.6,73.5,65.0,66.7,62.6,59.5,85,69,53,29.94,29.84,14,6,26,0.00
2013-7-17,81.7,73.3,67.5,67.4,62.1,55.3,83,69,57,29.94,29.84,15,9,28,0.00
2013-7-18,80.0,72.8,66.6,73.3,64.2,59.0,89,75,62,29.98,29.87,13,6,25,0.00
2013-7-19,85.4,73.8,62.6,68.7,63.5,59.0,90,71,55,30.00,29.90,13,5,25,0.00
2013-7-20,83.6,73.2,65.4,67.7,61.6,56.6,80,67,52,30.00,29.90,14,6,24,0.00
2013-7-21,84.3,73.8,65.3,67.4,63.4,57.1,90,71,53,29.95,29.85,15,7,28,0.00
2013-7-22,83.4,74.1,65.6,72.6,68.1,62.4,92,82,67,29.93,29.85,9,2,16,0.00
2013-7-23,83.8,75.0,70.5,71.0,68.5,66.2,90,81,64,29.95,29.87,13,2,21,0.00
2013-7-24,83.9,74.3,65.1,69.7,65.0,60.8,87,74,56,29.94,29.80,14,5,25,0.00
2013-7-25,83.0,73.1,64.7,68.1,63.0,58.8,87,72,54,29.92,29.82,15,7,26,0.00
2013-7-26,82.7,73.4,66.6,68.0,63.6,59.2,82,72,59,29.98,29.86,13,7,24,0.00
2013-7-27,83.6,74.0,67.1,68.7,63.1,55.9,85,69,59,29.97,29.87,16,8,30,0.00
2013-7-28,84.2,73.9,67.4,69.4,65.1,58.8,93,75,53,29.94,29.84,15,7,27,0.02
2013-7-29,76.6,72.1,69.4,75.0,70.4,66.9,97,94,89,29.91,29.69,18,6,49,2.85
2013-7-30,86.8,76.0,68.6,73.4,68.7,66.5,94,79,57,30.01,29.90,16,6,26,0.00
2013-7-31,82.5,74.7,69.7,68.4,65.4,60.1,89,74,57,30.02,29.94,17,10,35,0.00
2013-8-1,82.2,73.9,68.7,67.0,62.5,56.2,87,68,56,30.00,29.92,16,10,31,0.00
2013-8-2,83.4,73.9,66.0,68.7,63.3,59.7,83,70,57,29.96,29.88,13,7,26,0.00
2013-8-3,82.7,73.9,67.6,68.2,63.1,58.3,85,70,56,29.97,29.86,14,7,26,0.00
2013-8-4,82.9,73.5,66.9,68.6,64.5,61.6,89,74,59,29.96,29.85,15,8,26,0.00
2013-8-5,81.7,72.4,65.7,70.1,65.7,61.6,94,80,63,29.95,29.86,12,7,24,0.43
2013-8-6,81.7,73.4,67.2,69.5,64.0,58.2,85,73,63,29.97,29.86,14,8,25,0.00
2013-8-7,82.0,73.0,66.6,67.2,62.4,57.6,80,70,56,29.99,29.89,15,7,28,0.00
2013-8-8,80.3,72.2,66.8,67.6,63.1,58.1,84,73,60,30.01,29.91,13,6,23,0.00
2013-8-9,82.9,72.6,63.4,73.6,66.4,58.2,96,82,61,29.99,29.87,13,6,25,1.19
2013-8-10,81.7,74.0,70.0,72.5,69.6,66.6,96,87,68,29.95,29.88,15,6,25,0.73
2013-8-11,85.2,75.2,69.4,71.2,67.5,62.6,93,78,60,29.95,29.89,15,8,24,0.05
2013-8-12,80.6,72.7,68.3,70.1,65.3,59.9,87,78,68,29.98,29.90,16,8,30,0.00
2013-8-13,80.9,72.0,67.3,70.9,64.6,60.0,86,78,64,29.96,29.87,13,8,26,0.05
2013-8-14,81.6,73.3,67.9,68.7,63.8,58.1,85,73,61,29.95,29.84,15,8,26,0.00
2013-8-15,81.6,71.7,62.3,67.8,63.4,58.7,92,76,56,29.96,29.87,15,8,31,0.00
2013-8-16,79.6,71.8,67.7,71.8,65.9,57.2,93,82,67,29.98,29.89,16,9,30,0.13
2013-8-17,81.5,73.0,66.4,67.4,63.3,58.9,88,72,55,29.96,29.86,15,9,30,0.00
2013-8-18,83.6,73.6,62.9,68.7,62.6,57.7,87,69,50,29.95,29.86,15,6,26,0.00
2013-8-19,80.4,72.1,65.7,68.1,62.4,52.7,85,72,57,29.94,29.86,13,4,23,0.00
2013-8-20,84.5,73.5,64.2,70.5,65.4,59.8,88,76,62,29.93,29.84,7,1,16,0.00
2013-8-21,87.0,73.8,63.6,72.1,65.8,60.3,91,77,60,29.92,29.82,8,2,14,0.00
2013-8-22,84.4,74.3,64.3,69.5,65.2,60.9,89,74,56,29.92,29.81,13,3,28,0.00
2013-8-23,84.6,74.9,68.6,70.2,65.0,60.0,86,72,60,29.92,29.81,13,6,23,0.00
2013-8-24,83.1,74.0,67.9,70.1,64.1,59.3,84,72,59,29.97,29.85,15,7,28,0.00
2013-8-25,81.5,72.6,68.4,69.9,64.8,60.0,92,77,60,30.00,29.90,18,7,31,0.07
2013-8-26,82.7,74.1,67.3,68.7,64.0,56.9,88,71,56,30.02,29.93,18,8,26,0.00
2013-8-27,84.4,72.9,67.0,67.4,63.5,55.7,88,73,48,30.01,29.90,14,7,31,0.00
2013-8-28,81.7,72.8,65.0,70.4,65.5,60.3,93,78,58,29.95,29.84,9,4,18,0.00
2013-8-29,84.9,74.0,63.9,70.2,63.9,58.0,91,72,52,29.89,29.79,17,4,25,0.00
2013-8-30,81.4,71.2,63.2,70.1,63.5,56.5,87,77,63,29.97,29.87,12,3,22,0.03
2013-8-31,83.3,73.5,64.6,68.1,63.3,59.7,87,71,48,29.98,29.87,16,7,33,0.00
2013-9-1,82.1,72.8,65.5,69.0,62.6,53.3,85,71,59,29.94,29.85,15,8,28,0.00
2013-9-2,82.8,73.3,63.2,68.3,61.6,43.5,85,68,40,29.97,29.84,15,7,32,0.00
2013-9-3,83.9,72.2,60.5,66.3,60.6,52.0,88,68,50,29.95,29.86,14,5,23,0.00
2013-9-4,83.9,72.4,64.6,68.6,61.5,47.8,87,70,46,29.96,29.88,14,4,20,0.00
2013-9-5,81.5,70.6,61.4,68.4,61.9,54.8,87,75,51,30.03,29.92,9,2,16,0.04
2013-9-6,84.7,72.0,60.9,67.6,62.8,57.0,90,75,50,30.01,29.92,15,4,25,0.03
2013-9-7,85.1,75.2,68.8,71.3,67.2,64.1,92,77,59,29.98,29.86,13,6,26,0.13
2013-9-8,85.2,75.6,69.7,68.5,64.0,57.3,86,68,54,29.99,29.89,13,6,25,0.00
2013-9-9,84.4,74.1,68.3,68.0,62.4,56.4,89,68,49,30.01,29.89,14,7,25,0.00
2013-9-10,81.7,73.3,67.2,70.9,64.2,59.6,86,73,63,30.00,29.90,15,8,26,0.04
2013-9-11,85.0,74.3,68.2,70.9,65.6,59.8,87,75,61,30.00,29.90,14,6,24,0.00
2013-9-12,85.0,75.3,66.6,72.2,67.3,60.2,91,77,58,29.95,29.84,13,5,25,0.00
2013-9-13,86.0,76.1,69.3,70.9,65.5,58.6,88,71,56,29.86,29.76,15,7,24,0.00
2013-9-14,85.8,74.5,67.7,70.8,65.4,56.1,90,74,58,29.87,29.77,12,5,22,0.00
2013-9-15,86.0,75.4,66.6,69.4,64.5,59.1,90,70,54,29.90,29.82,13,6,26,0.00
2013-9-16,84.0,74.3,68.4,69.6,65.5,59.0,92,75,56,29.98,29.88,15,7,27,0.16
2013-9-17,81.1,72.3,67.8,71.8,66.1,62.2,94,81,65,29.96,29.86,17,8,28,0.50
2013-9-18,84.3,73.9,68.0,68.9,63.5,57.0,87,71,58,29.93,29.85,13,6,22,0.01
2013-9-19,83.3,74.2,67.9,69.1,63.2,56.5,86,69,56,29.97,29.87,14,7,28,0.00
2013-9-20,83.3,74.1,67.8,68.7,62.9,56.3,85,69,52,29.97,29.89,14,7,26,0.01
2013-9-21,79.9,72.1,66.5,68.5,63.0,58.9,89,74,61,29.96,29.87,17,9,31,0.07
2013-9-22,80.2,72.4,67.8,70.1,63.7,56.7,88,75,60,29.96,29.87,13,7,24,0.08
2013-9-23,85.1,73.6,67.8,68.5,63.1,55.9,87,71,46,29.95,29.85,16,7,24,0.01
2013-9-24,83.3,72.9,67.1,69.3,63.5,59.3,89,73,56,29.95,29.84,13,5,23,0.00
2013-9-25,82.1,73.0,67.2,69.6,64.7,61.7,88,76,59,29.97,29.88,13,6,26,0.04
2013-9-26,87.5,73.1,66.1,67.2,63.0,58.5,88,72,43,29.93,29.85,10,3,20,0.00
2013-9-27,83.0,73.5,65.2,67.2,62.5,58.9,84,69,54,30.01,29.89,14,6,25,0.00
2013-9-28,79.6,71.6,67.7,69.3,65.1,60.5,92,81,63,30.02,29.93,17,8,25,0.47
2013-9-29,81.3,72.1,66.4,68.7,62.8,54.3,85,73,61,29.99,29.86,15,7,26,0.00
2013-9-30,81.6,72.3,64.1,68.5,64.0,59.8,88,76,63,29.97,29.87,13,4,24,0.00
2013-10-1,84.6,74.1,64.0,69.7,64.7,60.2,89,73,58,29.95,29.83,14,5,24,0.00
2013-10-2,83.4,73.3,64.2,68.1,64.3,60.8,89,74,55,29.91,29.80,12,5,23,0.00
2013-10-3,83.1,73.7,68.6,68.0,63.9,60.7,88,72,57,29.91,29.82,14,5,23,0.00
2013-10-4,82.8,73.6,66.6,68.6,64.4,61.1,89,74,59,29.92,29.83,14,6,26,0.00
2013-10-5,82.3,72.3,67.0,66.9,63.7,61.2,91,75,55,29.94,29.83,21,8,28,0.08
2013-10-6,82.4,72.9,67.6,68.1,64.1,60.1,85,74,55,29.93,29.83,12,6,25,0.00
2013-10-7,81.4,73.3,68.1,66.1,63.3,61.0,83,71,57,29.98,29.88,14,6,25,0.00
2013-10-8,79.8,71.1,67.5,71.0,63.9,58.5,89,78,65,29.99,29.91,17,7,29,0.09
2013-10-9,80.9,72.1,65.9,68.7,63.4,59.9,88,74,64,29.98,29.86,15,8,27,0.00
2013-10-10,85.6,73.1,63.0,68.4,63.6,57.5,89,73,54,29.93,29.83,12,3,22,0.00
2013-10-11,84.3,72.8,63.1,72.3,65.4,58.8,89,78,60,29.96,29.85,10,1,16,0.00
2013-10-12,84.5,72.8,64.4,71.7,66.5,61.2,91,81,61,29.95,29.86,6,1,12,0.00
2013-10-13,84.7,72.7,63.8,70.8,65.3,60.0,92,79,61,29.93,29.83,7,1,16,0.00
2013-10-14,82.2,70.6,62.1,69.4,63.9,59.0,91,80,64,29.92,29.81,8,2,16,0.00
2013-10-15,82.0,70.6,62.1,69.1,62.8,57.0,90,77,62,29.92,29.82,12,3,18,0.00
2013-10-16,82.5,71.1,60.8,68.6,62.8,55.2,90,76,59,29.93,29.81,14,4,25,0.00
2013-10-17,83.7,71.7,62.3,71.9,64.7,59.0,90,79,63,29.93,29.85,8,1,10,0.00
2013-10-18,82.0,71.8,62.9,71.3,66.0,58.7,92,82,64,29.91,29.80,6,1,15,0.00
2013-10-19,84.7,71.8,63.4,71.2,65.3,60.3,95,81,52,29.85,29.76,10,2,17,0.00
2013-10-20,81.0,71.2,64.1,70.6,65.9,59.7,93,84,61,29.89,29.79,10,2,14,0.00
2013-10-21,81.1,70.2,61.9,68.1,63.3,58.8,95,80,52,29.93,29.83,7,1,14,0.00
2013-10-22,81.8,70.0,61.1,68.7,63.7,57.9,91,81,59,29.93,29.85,10,3,18,0.04
2013-10-23,82.6,72.5,65.7,68.2,64.0,60.8,91,75,52,29.94,29.83,12,5,22,0.00
2013-10-24,81.6,72.5,62.8,68.0,62.0,56.3,82,70,57,29.92,29.81,14,4,23,0.00
2013-10-25,84.5,72.9,62.1,70.2,63.9,57.1,88,74,55,29.95,29.83,9,2,24,0.00
2013-10-26,86.0,73.3,64.3,72.3,66.0,60.6,89,79,59,29.98,29.87,8,2,15,0.01
2013-10-27,83.9,72.4,63.8,71.1,65.7,61.1,92,80,60,29.97,29.88,7,1,17,0.01
2013-10-28,83.1,72.5,62.9,70.4,63.9,57.1,92,75,62,29.98,29.84,12,4,25,0.00
2013-10-29,80.3,71.4,64.8,68.3,62.6,56.5,86,74,64,30.01,29.89,10,4,21,0.00
2013-10-30,77.7,70.3,66.1,68.7,64.4,58.1,93,82,60,30.03,29.92,9,4,21,0.66
2013-10-31,81.4,71.8,65.0,69.0,64.5,60.9,90,78,62,30.03,29.93,12,5,20,0.01
2013-11-1,80.0,71.1,65.8,69.9,64.6,60.9,90,80,65,30.01,29.90,13,7,27,0.08
2013-11-2,76.0,70.2,66.7,69.1,64.7,61.1,93,83,74,30.02,29.91,14,8,25,0.18
2013-11-3,78.7,70.9,66.5,67.3,62.5,55.5,88,75,63,30.01,29.89,14,7,25,0.02
2013-11-4,79.7,71.7,66.3,68.4,63.2,59.8,87,75,64,29.96,29.85,12,7,27,0.00
2013-11-5,82.0,70.6,63.7,69.0,64.3,59.7,93,81,61,29.93,29.83,10,3,20,0.00
2013-11-6,84.8,71.8,64.1,69.9,63.7,58.9,91,77,51,29.92,29.79,8,2,15,0.00
2013-11-7,83.4,71.4,61.9,70.4,64.0,57.1,88,78,59,29.92,29.81,8,2,17,0.00
2013-11-8,81.9,72.2,64.7,69.6,63.2,53.0,91,74,51,29.91,29.78,10,3,18,0.00
2013-11-9,79.4,69.3,62.7,71.9,64.5,57.6,95,85,70,29.85,29.75,9,4,21,0.94
2013-11-10,75.4,66.7,63.6,67.7,63.9,61.1,96,91,73,29.92,29.77,13,7,24,4.59
2013-11-11,73.5,65.7,61.4,62.9,59.9,56.7,95,82,66,29.92,29.82,14,7,23,0.66
2013-11-12,76.0,65.7,56.6,62.6,58.4,53.7,90,78,57,29.95,29.85,7,2,13,0.00
2013-11-13,77.0,68.5,61.6,66.5,62.6,57.0,93,82,66,29.95,29.84,9,3,16,0.03
2013-11-14,78.0,69.2,65.2,69.0,66.3,63.7,96,91,72,29.95,29.84,7,2,13,0.22
2013-11-15,81.6,72.3,66.2,70.9,67.3,63.4,96,85,69,29.98,29.89,9,2,17,0.00
2013-11-16,79.8,72.0,65.6,69.1,64.7,61.3,94,79,64,29.97,29.87,14,5,26,0.00
2013-11-17,81.1,71.3,64.4,67.8,64.2,59.6,87,79,59,29.93,29.82,8,2,18,0.00
2013-11-18,81.4,70.5,62.3,68.0,62.4,57.3,92,77,57,29.92,29.82,7,1,12,0.00
2013-11-19,82.8,69.5,59.1,69.8,62.7,54.6,90,80,61,29.92,29.80,7,1,13,0.00
2013-11-20,83.3,70.1,61.2,69.1,62.4,57.0,90,77,54,29.94,29.84,8,1,13,0.00
2013-11-21,79.5,69.6,63.1,69.6,63.1,57.7,87,80,67,29.98,29.86,5,1,10,0.00
2013-11-22,79.7,69.2,59.8,68.2,62.9,56.2,94,81,65,29.99,29.89,5,1,12,0.03
2013-11-23,75.2,67.8,63.6,66.2,62.8,58.3,95,85,70,29.97,29.84,8,3,17,0.51
2013-11-24,77.0,67.9,60.2,62.1,57.9,53.7,87,71,54,29.94,29.82,13,5,23,0.00
2013-11-25,76.4,69.0,63.4,65.1,60.9,55.1,85,76,67,30.00,29.88,13,6,24,0.00
2013-11-26,78.0,70.4,66.2,66.8,63.0,59.1,87,78,66,30.02,29.89,13,7,26,0.00
2013-11-27,80.2,70.5,63.5,67.5,60.4,52.0,83,71,51,30.02,29.87,10,4,20,0.00
2013-11-28,81.9,70.4,60.4,67.1,61.7,55.6,86,75,55,29.95,29.83,7,2,13,0.00
2013-11-29,79.1,69.8,61.2,66.3,62.5,57.0,89,78,61,29.91,29.79,9,2,14,0.00
2013-11-30,77.9,70.7,65.2,68.0,63.9,59.6,90,79,67,29.92,29.83,13,3,24,0.00
2013-12-1,80.0,70.1,62.4,70.7,64.1,58.4,93,82,63,29.93,29.81,9,2,16,0.03
2013-12-2,77.4,69.3,62.6,69.2,64.6,59.3,94,85,73,29.95,29.84,6,1,10,0.00
2013-12-3,81.2,69.0,59.3,66.7,60.8,54.2,92,76,58,29.92,29.80,9,2,17,0.00
2013-12-4,78.2,68.8,59.6,64.6,59.2,54.8,89,73,55,29.93,29.78,12,3,22,0.00
2013-12-5,79.3,67.4,59.0,66.9,60.2,54.3,87,78,61,29.96,29.85,7,1,13,0.00
2013-12-6,78.3,67.2,58.2,65.6,59.9,54.8,91,78,62,29.96,29.84,10,2,20,0.00
2013-12-7,81.4,69.6,59.2,66.7,61.1,54.5,88,75,54,29.93,29.82,10,2,15,0.00
2013-12-8,83.5,71.3,62.5,69.4,63.7,57.2,89,78,53,29.99,29.86,12,2,17,0.00
2013-12-9,82.1,71.6,63.5,70.6,64.8,58.6,90,79,61,30.01,29.90,7,1,12,0.00
2013-12-10,84.1,71.6,63.8,67.0,63.2,56.7,93,76,43,30.00,29.86,14,7,26,0.01
2013-12-11,78.6,69.8,62.3,66.5,61.1,55.5,86,74,62,29.97,29.86,17,5,26,0.00
2013-12-12,81.2,69.0,60.1,68.3,61.5,54.9,89,78,53,30.01,29.87,12,4,20,0.02
2013-12-13,81.8,70.5,63.7,68.1,63.2,59.1,90,78,61,30.00,29.87,10,2,21,0.00
2013-12-14,81.8,69.8,62.2,64.6,60.8,56.8,89,74,53,29.94,29.82,8,2,15,0.00
2013-12-15,77.0,66.9,57.9,65.4,60.2,54.2,93,80,58,29.92,29.77,7,2,13,0.00
2013-12-16,77.8,67.2,59.1,67.3,61.7,55.6,95,83,66,29.94,29.83,6,1,12,0.00
2013-12-17,76.3,66.6,57.5,65.8,60.6,52.7,92,82,63,29.98,29.88,9,3,16,0.00
2013-12-18,77.0,67.9,61.2,65.9,61.3,56.9,93,80,65,29.98,29.86,10,3,20,0.00
2013-12-19,76.1,67.8,63.0,64.5,59.9,57.0,86,76,62,29.99,29.89,12,4,22,0.02
2013-12-20,78.9,69.2,59.5,65.7,60.9,55.0,88,75,61,29.99,29.87,9,2,20,0.00
2013-12-21,80.6,68.6,60.9,67.3,62.3,57.8,92,81,63,29.95,29.85,8,2,15,0.01
2013-12-22,77.8,67.0,58.3,68.0,61.1,55.5,92,82,69,29.95,29.85,9,3,16,0.00
2013-12-23,77.3,68.8,61.4,66.2,61.9,57.6,90,79,65,29.99,29.87,13,6,23,0.03
2013-12-24,77.0,69.1,65.4,65.2,61.9,57.5,87,78,64,30.00,29.88,14,8,27,0.00
2013-12-25,75.9,68.7,64.3,66.5,62.6,57.8,94,81,67,29.99,29.88,15,8,25,0.22
2013-12-26,77.0,68.5,64.0,66.2,61.7,55.5,94,79,63,29.95,29.84,13,7,25,0.09
2013-12-27,72.3,66.5,63.2,68.1,63.2,56.7,96,89,76,29.93,29.81,13,6,24,2.04
2013-12-28,76.4,69.2,65.4,69.4,66.1,63.4,96,90,77,29.90,29.77,10,5,21,1.23
2013-12-29,68.4,65.9,63.8,66.8,64.6,61.7,97,96,92,29.95,29.85,10,4,20,2.64
2013-12-30,70.4,65.6,63.7,66.5,63.1,61.7,97,92,81,29.95,29.86,12,5,21,0.16
2013-12-31,76.3,67.6,61.1,67.6,63.0,58.7,94,85,74,29.95,29.85,9,3,16,0.00
2014-1-1,77.5,67.2,59.3,68.7,62.0,56.7,94,84,68,29.92,29.80,7,1,12,0.00
2014-1-2,78.1,68.4,60.0,68.0,62.2,56.8,95,81,63,29.86,29.69,20,8,30,0.00